sensor_id;sensor_type;location;lat;lon;timestamp;temperature;humidity
67358;HTU21D;54240;51.096;5.878;2023-04-03T00:00:57;3.34;-6.00
67358;HTU21D;54240;51.096;5.878;2023-04-03T00:03:22;3.36;-6.00
67358;HTU21D;54240;51.096;5.878;2023-04-03T00:05:49;3.36;-6.00
67358;HTU21D;54240;51.096;5.878;2023-04-03T00:08:15;3.35;-6.00
67358;HTU21D;54240;51.096;5.878;2023-04-03T00:10:41;3.33;-6.00
67358;HTU21D;54240;51.096;5.878;2023-04-03T00:13:08;3.31;-6.00
67358;HTU21D;54240;51.096;5.878;2023-04-03T00:15:35;3.31;-6.00
67358;HTU21D;54240;51.096;5.878;2023-04-03T00:18:02;3.32;-6.00
67358;HTU21D;54240;51.096;5.878;2023-04-03T00:20:28;3.27;-6.00
67358;HTU21D;54240;51.096;5.878;2023-04-03T00:22:54;3.26;-6.00
67358;HTU21D;54240;51.096;5.878;2023-04-03T00:25:21;3.28;-6.00
67358;HTU21D;54240;51.096;5.878;2023-04-03T00:27:47;3.24;-6.00
67358;HTU21D;54240;51.096;5.878;2023-04-03T00:30:15;3.24;-6.00
67358;HTU21D;54240;51.096;5.878;2023-04-03T00:32:42;3.20;-6.00
67358;HTU21D;54240;51.096;5.878;2023-04-03T00:35:09;3.19;-6.00
67358;HTU21D;54240;51.096;5.878;2023-04-03T00:37:35;3.18;-6.00
67358;HTU21D;54240;51.096;5.878;2023-04-03T00:40:02;3.16;-6.00
67358;HTU21D;54240;51.096;5.878;2023-04-03T00:42:29;3.14;-6.00
67358;HTU21D;54240;51.096;5.878;2023-04-03T00:47:23;3.09;-6.00
67358;HTU21D;54240;51.096;5.878;2023-04-03T00:49:50;3.06;-6.00
67358;HTU21D;54240;51.096;5.878;2023-04-03T00:52:22;3.00;-6.00
67358;HTU21D;54240;51.096;5.878;2023-04-03T00:54:54;2.99;-6.00
67358;HTU21D;54240;51.096;5.878;2023-04-03T00:57:23;2.97;-6.00
67358;HTU21D;54240;51.096;5.878;2023-04-03T00:59:55;2.91;-6.00
67358;HTU21D;54240;51.096;5.878;2023-04-03T01:02:22;2.87;-6.00
67358;HTU21D;54240;51.096;5.878;2023-04-03T01:04:48;2.82;-6.00
67358;HTU21D;54240;51.096;5.878;2023-04-03T01:07:18;2.79;-6.00
67358;HTU21D;54240;51.096;5.878;2023-04-03T01:09:48;2.74;-6.00
67358;HTU21D;54240;51.096;5.878;2023-04-03T01:12:26;2.67;-6.00
67358;HTU21D;54240;51.096;5.878;2023-04-03T01:14:55;2.60;-6.00
67358;HTU21D;54240;51.096;5.878;2023-04-03T01:25:44;2.46;-6.00
67358;HTU21D;54240;51.096;5.878;2023-04-03T01:28:17;2.45;-6.00
67358;HTU21D;54240;51.096;5.878;2023-04-03T01:33:29;2.43;-6.00
67358;HTU21D;54240;51.096;5.878;2023-04-03T01:35:55;2.43;-6.00
67358;HTU21D;54240;51.096;5.878;2023-04-03T01:38:22;2.42;-6.00
67358;HTU21D;54240;51.096;5.878;2023-04-03T01:40:47;2.38;-6.00
67358;HTU21D;54240;51.096;5.878;2023-04-03T01:43:13;2.39;-6.00
67358;HTU21D;54240;51.096;5.878;2023-04-03T01:45:40;2.36;-6.00
67358;HTU21D;54240;51.096;5.878;2023-04-03T01:48:06;2.35;-6.00
67358;HTU21D;54240;51.096;5.878;2023-04-03T01:50:32;2.31;-6.00
67358;HTU21D;54240;51.096;5.878;2023-04-03T01:52:58;2.30;-6.00
67358;HTU21D;54240;51.096;5.878;2023-04-03T01:55:24;2.28;-6.00
67358;HTU21D;54240;51.096;5.878;2023-04-03T01:57:50;2.29;-6.00
67358;HTU21D;54240;51.096;5.878;2023-04-03T02:00:16;2.22;-6.00
67358;HTU21D;54240;51.096;5.878;2023-04-03T02:02:42;2.19;-6.00
67358;HTU21D;54240;51.096;5.878;2023-04-03T02:05:08;2.20;-6.00
67358;HTU21D;54240;51.096;5.878;2023-04-03T02:07:34;2.19;-6.00
67358;HTU21D;54240;51.096;5.878;2023-04-03T02:10:00;2.17;-6.00
67358;HTU21D;54240;51.096;5.878;2023-04-03T02:12:27;2.14;-6.00
67358;HTU21D;54240;51.096;5.878;2023-04-03T02:14:53;2.13;-6.00
67358;HTU21D;54240;51.096;5.878;2023-04-03T02:17:19;2.12;-6.00
67358;HTU21D;54240;51.096;5.878;2023-04-03T02:19:45;2.10;-6.00
67358;HTU21D;54240;51.096;5.878;2023-04-03T02:22:11;2.09;-6.00
67358;HTU21D;54240;51.096;5.878;2023-04-03T02:24:36;2.08;-6.00
67358;HTU21D;54240;51.096;5.878;2023-04-03T02:27:04;2.03;-6.00
67358;HTU21D;54240;51.096;5.878;2023-04-03T02:29:30;2.03;-6.00
67358;HTU21D;54240;51.096;5.878;2023-04-03T02:31:56;2.02;-6.00
67358;HTU21D;54240;51.096;5.878;2023-04-03T02:34:22;2.01;-6.00
67358;HTU21D;54240;51.096;5.878;2023-04-03T02:36:49;2.00;-6.00
67358;HTU21D;54240;51.096;5.878;2023-04-03T02:39:16;2.00;-6.00
67358;HTU21D;54240;51.096;5.878;2023-04-03T02:41:42;1.99;-6.00
67358;HTU21D;54240;51.096;5.878;2023-04-03T02:44:13;1.97;-6.00
67358;HTU21D;54240;51.096;5.878;2023-04-03T02:46:39;1.94;-6.00
67358;HTU21D;54240;51.096;5.878;2023-04-03T02:49:05;1.94;-6.00
67358;HTU21D;54240;51.096;5.878;2023-04-03T02:51:31;1.95;-6.00
67358;HTU21D;54240;51.096;5.878;2023-04-03T02:53:58;1.93;-6.00
67358;HTU21D;54240;51.096;5.878;2023-04-03T02:56:27;1.95;-6.00
67358;HTU21D;54240;51.096;5.878;2023-04-03T02:58:53;1.95;-6.00
67358;HTU21D;54240;51.096;5.878;2023-04-03T03:01:19;1.97;-6.00
67358;HTU21D;54240;51.096;5.878;2023-04-03T03:03:45;1.98;-6.00
67358;HTU21D;54240;51.096;5.878;2023-04-03T03:06:14;1.95;-6.00
67358;HTU21D;54240;51.096;5.878;2023-04-03T03:08:41;1.97;-6.00
67358;HTU21D;54240;51.096;5.878;2023-04-03T03:11:07;1.96;-6.00
67358;HTU21D;54240;51.096;5.878;2023-04-03T03:13:33;1.97;-6.00
67358;HTU21D;54240;51.096;5.878;2023-04-03T03:15:59;1.97;-6.00
67358;HTU21D;54240;51.096;5.878;2023-04-03T03:18:26;1.97;-6.00
67358;HTU21D;54240;51.096;5.878;2023-04-03T03:20:54;1.99;-6.00
67358;HTU21D;54240;51.096;5.878;2023-04-03T03:23:22;1.95;-6.00
67358;HTU21D;54240;51.096;5.878;2023-04-03T03:25:49;2.00;-6.00
67358;HTU21D;54240;51.096;5.878;2023-04-03T03:28:15;2.02;-6.00
67358;HTU21D;54240;51.096;5.878;2023-04-03T03:30:41;2.03;-6.00
67358;HTU21D;54240;51.096;5.878;2023-04-03T03:33:07;2.01;-6.00
67358;HTU21D;54240;51.096;5.878;2023-04-03T03:35:33;1.99;-6.00
67358;HTU21D;54240;51.096;5.878;2023-04-03T03:37:59;1.99;-6.00
67358;HTU21D;54240;51.096;5.878;2023-04-03T03:40:25;1.98;-6.00
67358;HTU21D;54240;51.096;5.878;2023-04-03T03:42:52;1.94;-6.00
67358;HTU21D;54240;51.096;5.878;2023-04-03T03:45:18;1.97;-6.00
67358;HTU21D;54240;51.096;5.878;2023-04-03T03:47:43;1.95;-6.00
67358;HTU21D;54240;51.096;5.878;2023-04-03T03:50:10;1.91;-6.00
67358;HTU21D;54240;51.096;5.878;2023-04-03T03:52:36;1.93;-6.00
67358;HTU21D;54240;51.096;5.878;2023-04-03T03:55:02;1.93;-6.00
67358;HTU21D;54240;51.096;5.878;2023-04-03T03:57:28;1.88;-6.00
67358;HTU21D;54240;51.096;5.878;2023-04-03T03:59:54;1.87;-6.00
67358;HTU21D;54240;51.096;5.878;2023-04-03T04:02:20;1.88;-6.00
67358;HTU21D;54240;51.096;5.878;2023-04-03T04:04:47;1.87;-6.00
67358;HTU21D;54240;51.096;5.878;2023-04-03T04:07:13;1.85;-6.00
67358;HTU21D;54240;51.096;5.878;2023-04-03T04:09:39;1.87;-6.00
67358;HTU21D;54240;51.096;5.878;2023-04-03T04:12:07;1.84;-6.00
67358;HTU21D;54240;51.096;5.878;2023-04-03T04:14:34;1.79;-6.00
67358;HTU21D;54240;51.096;5.878;2023-04-03T04:17:00;1.80;-6.00
67358;HTU21D;54240;51.096;5.878;2023-04-03T04:19:28;1.82;-6.00
67358;HTU21D;54240;51.096;5.878;2023-04-03T04:21:54;1.82;-6.00
67358;HTU21D;54240;51.096;5.878;2023-04-03T04:24:20;1.80;-6.00
67358;HTU21D;54240;51.096;5.878;2023-04-03T04:26:48;1.82;-6.00
67358;HTU21D;54240;51.096;5.878;2023-04-03T04:29:16;1.83;-6.00
67358;HTU21D;54240;51.096;5.878;2023-04-03T04:31:45;1.79;-6.00
67358;HTU21D;54240;51.096;5.878;2023-04-03T04:34:11;1.77;-6.00
67358;HTU21D;54240;51.096;5.878;2023-04-03T04:36:39;1.76;-6.00
67358;HTU21D;54240;51.096;5.878;2023-04-03T04:39:05;1.75;-6.00
67358;HTU21D;54240;51.096;5.878;2023-04-03T04:41:31;1.71;-6.00
67358;HTU21D;54240;51.096;5.878;2023-04-03T04:43:58;1.69;-6.00
67358;HTU21D;54240;51.096;5.878;2023-04-03T04:46:26;1.65;-6.00
67358;HTU21D;54240;51.096;5.878;2023-04-03T04:48:56;1.69;-6.00
67358;HTU21D;54240;51.096;5.878;2023-04-03T04:51:24;1.67;-6.00
67358;HTU21D;54240;51.096;5.878;2023-04-03T04:53:50;1.67;-6.00
67358;HTU21D;54240;51.096;5.878;2023-04-03T04:56:18;1.73;-6.00
67358;HTU21D;54240;51.096;5.878;2023-04-03T04:58:44;1.69;-6.00
67358;HTU21D;54240;51.096;5.878;2023-04-03T05:01:11;1.72;-6.00
67358;HTU21D;54240;51.096;5.878;2023-04-03T05:03:46;1.69;-6.00
67358;HTU21D;54240;51.096;5.878;2023-04-03T05:06:13;1.69;-6.00
67358;HTU21D;54240;51.096;5.878;2023-04-03T05:08:39;1.72;-6.00
67358;HTU21D;54240;51.096;5.878;2023-04-03T05:11:06;1.69;-6.00
67358;HTU21D;54240;51.096;5.878;2023-04-03T05:13:33;1.69;-6.00
67358;HTU21D;54240;51.096;5.878;2023-04-03T05:15:59;1.71;-6.00
67358;HTU21D;54240;51.096;5.878;2023-04-03T05:18:25;1.76;-6.00
67358;HTU21D;54240;51.096;5.878;2023-04-03T05:20:53;1.70;-6.00
67358;HTU21D;54240;51.096;5.878;2023-04-03T05:23:19;1.73;-6.00
67358;HTU21D;54240;51.096;5.878;2023-04-03T05:25:46;1.70;-6.00
67358;HTU21D;54240;51.096;5.878;2023-04-03T05:28:14;1.75;-6.00
67358;HTU21D;54240;51.096;5.878;2023-04-03T05:30:40;1.77;-6.00
67358;HTU21D;54240;51.096;5.878;2023-04-03T05:33:07;1.76;-6.00
67358;HTU21D;54240;51.096;5.878;2023-04-03T05:35:45;1.79;-6.00
67358;HTU21D;54240;51.096;5.878;2023-04-03T05:38:16;1.78;-6.00
67358;HTU21D;54240;51.096;5.878;2023-04-03T05:40:43;1.80;-6.00
67358;HTU21D;54240;51.096;5.878;2023-04-03T05:43:10;1.84;-6.00
67358;HTU21D;54240;51.096;5.878;2023-04-03T05:45:39;1.88;-6.00
67358;HTU21D;54240;51.096;5.878;2023-04-03T05:48:05;1.90;-6.00
67358;HTU21D;54240;51.096;5.878;2023-04-03T05:50:31;1.93;-6.00
67358;HTU21D;54240;51.096;5.878;2023-04-03T05:52:59;1.97;-6.00
67358;HTU21D;54240;51.096;5.878;2023-04-03T05:55:28;2.02;-6.00
67358;HTU21D;54240;51.096;5.878;2023-04-03T05:57:54;2.07;-6.00
67358;HTU21D;54240;51.096;5.878;2023-04-03T06:00:20;2.13;-6.00
67358;HTU21D;54240;51.096;5.878;2023-04-03T06:02:55;2.12;-6.00
67358;HTU21D;54240;51.096;5.878;2023-04-03T06:05:23;2.20;-6.00
67358;HTU21D;54240;51.096;5.878;2023-04-03T06:07:50;2.12;-6.00
67358;HTU21D;54240;51.096;5.878;2023-04-03T06:10:16;2.24;-6.00
67358;HTU21D;54240;51.096;5.878;2023-04-03T06:12:42;2.26;-6.00
67358;HTU21D;54240;51.096;5.878;2023-04-03T06:15:08;2.29;-6.00
67358;HTU21D;54240;51.096;5.878;2023-04-03T06:17:36;2.44;-6.00
67358;HTU21D;54240;51.096;5.878;2023-04-03T06:20:04;2.51;-6.00
67358;HTU21D;54240;51.096;5.878;2023-04-03T06:22:30;2.59;-6.00
67358;HTU21D;54240;51.096;5.878;2023-04-03T06:24:56;2.57;-6.00
67358;HTU21D;54240;51.096;5.878;2023-04-03T06:27:23;2.66;-6.00
67358;HTU21D;54240;51.096;5.878;2023-04-03T06:29:49;2.76;-6.00
67358;HTU21D;54240;51.096;5.878;2023-04-03T06:32:15;2.93;-6.00
67358;HTU21D;54240;51.096;5.878;2023-04-03T06:34:41;2.99;-6.00
67358;HTU21D;54240;51.096;5.878;2023-04-03T06:37:18;3.05;-6.00
67358;HTU21D;54240;51.096;5.878;2023-04-03T06:39:45;3.15;-6.00
67358;HTU21D;54240;51.096;5.878;2023-04-03T06:42:11;3.16;-6.00
67358;HTU21D;54240;51.096;5.878;2023-04-03T06:44:46;3.18;-6.00
67358;HTU21D;54240;51.096;5.878;2023-04-03T06:47:16;3.25;-6.00
67358;HTU21D;54240;51.096;5.878;2023-04-03T06:49:42;3.33;-6.00
67358;HTU21D;54240;51.096;5.878;2023-04-03T06:52:09;3.43;-6.00
67358;HTU21D;54240;51.096;5.878;2023-04-03T06:54:35;3.48;-6.00
67358;HTU21D;54240;51.096;5.878;2023-04-03T06:57:02;3.55;-6.00
67358;HTU21D;54240;51.096;5.878;2023-04-03T06:59:28;3.70;-6.00
67358;HTU21D;54240;51.096;5.878;2023-04-03T07:01:54;3.77;-6.00
67358;HTU21D;54240;51.096;5.878;2023-04-03T07:04:20;3.67;-6.00
67358;HTU21D;54240;51.096;5.878;2023-04-03T07:06:46;3.71;-6.00
67358;HTU21D;54240;51.096;5.878;2023-04-03T07:09:13;3.68;-6.00
67358;HTU21D;54240;51.096;5.878;2023-04-03T07:11:39;3.89;-6.00
67358;HTU21D;54240;51.096;5.878;2023-04-03T07:14:05;3.94;-6.00
67358;HTU21D;54240;51.096;5.878;2023-04-03T07:16:36;4.10;-6.00
67358;HTU21D;54240;51.096;5.878;2023-04-03T07:19:02;4.16;-6.00
67358;HTU21D;54240;51.096;5.878;2023-04-03T07:21:28;4.07;-6.00
67358;HTU21D;54240;51.096;5.878;2023-04-03T07:23:54;4.21;-6.00
67358;HTU21D;54240;51.096;5.878;2023-04-03T07:26:21;4.36;-6.00
67358;HTU21D;54240;51.096;5.878;2023-04-03T07:28:48;4.52;-6.00
67358;HTU21D;54240;51.096;5.878;2023-04-03T07:31:15;4.71;-6.00
67358;HTU21D;54240;51.096;5.878;2023-04-03T07:33:42;4.75;-6.00
67358;HTU21D;54240;51.096;5.878;2023-04-03T07:36:10;4.89;-6.00
67358;HTU21D;54240;51.096;5.878;2023-04-03T07:38:36;5.08;-6.00
67358;HTU21D;54240;51.096;5.878;2023-04-03T07:41:03;5.42;-6.00
67358;HTU21D;54240;51.096;5.878;2023-04-03T07:43:29;5.97;-6.00
67358;HTU21D;54240;51.096;5.878;2023-04-03T07:45:55;6.46;-6.00
67358;HTU21D;54240;51.096;5.878;2023-04-03T07:48:23;6.38;-6.00
67358;HTU21D;54240;51.096;5.878;2023-04-03T07:50:49;6.51;-6.00
67358;HTU21D;54240;51.096;5.878;2023-04-03T07:53:16;6.38;-6.00
67358;HTU21D;54240;51.096;5.878;2023-04-03T07:55:42;6.94;-6.00
67358;HTU21D;54240;51.096;5.878;2023-04-03T07:58:13;7.27;-6.00
67358;HTU21D;54240;51.096;5.878;2023-04-03T08:00:40;7.50;-6.00
67358;HTU21D;54240;51.096;5.878;2023-04-03T08:03:07;7.82;-6.00
67358;HTU21D;54240;51.096;5.878;2023-04-03T08:05:37;7.44;-6.00
67358;HTU21D;54240;51.096;5.878;2023-04-03T08:08:03;7.07;-6.00
67358;HTU21D;54240;51.096;5.878;2023-04-03T08:10:30;7.16;-6.00
67358;HTU21D;54240;51.096;5.878;2023-04-03T08:12:56;7.71;-6.00
67358;HTU21D;54240;51.096;5.878;2023-04-03T08:15:22;7.86;-6.00
67358;HTU21D;54240;51.096;5.878;2023-04-03T08:17:48;7.55;-6.00
67358;HTU21D;54240;51.096;5.878;2023-04-03T08:20:14;7.97;-6.00
67358;HTU21D;54240;51.096;5.878;2023-04-03T08:22:40;8.34;-6.00
67358;HTU21D;54240;51.096;5.878;2023-04-03T08:25:07;8.22;-6.00
67358;HTU21D;54240;51.096;5.878;2023-04-03T08:27:33;8.63;-6.00
67358;HTU21D;54240;51.096;5.878;2023-04-03T08:29:59;9.17;-6.00
67358;HTU21D;54240;51.096;5.878;2023-04-03T08:32:25;9.53;-6.00
67358;HTU21D;54240;51.096;5.878;2023-04-03T08:34:51;9.75;-6.00
67358;HTU21D;54240;51.096;5.878;2023-04-03T08:37:17;9.67;-6.00
67358;HTU21D;54240;51.096;5.878;2023-04-03T08:39:43;9.34;-6.00
67358;HTU21D;54240;51.096;5.878;2023-04-03T08:42:36;8.96;-6.00
67358;HTU21D;54240;51.096;5.878;2023-04-03T08:45:12;9.68;-6.00
67358;HTU21D;54240;51.096;5.878;2023-04-03T08:48:05;9.65;-6.00
67358;HTU21D;54240;51.096;5.878;2023-04-03T08:50:52;9.67;-6.00
67358;HTU21D;54240;51.096;5.878;2023-04-03T08:53:21;9.81;-6.00
67358;HTU21D;54240;51.096;5.878;2023-04-03T08:55:52;10.50;-6.00
67358;HTU21D;54240;51.096;5.878;2023-04-03T08:58:22;10.82;-6.00
67358;HTU21D;54240;51.096;5.878;2023-04-03T09:01:03;10.13;-6.00
67358;HTU21D;54240;51.096;5.878;2023-04-03T09:03:36;9.88;-6.00
67358;HTU21D;54240;51.096;5.878;2023-04-03T09:06:03;9.40;-6.00
67358;HTU21D;54240;51.096;5.878;2023-04-03T09:14:26;8.78;-6.00
67358;HTU21D;54240;51.096;5.878;2023-04-03T09:16:58;9.18;-6.00
67358;HTU21D;54240;51.096;5.878;2023-04-03T09:22:25;8.62;-6.00
67358;HTU21D;54240;51.096;5.878;2023-04-03T09:25:14;9.84;-6.00
67358;HTU21D;54240;51.096;5.878;2023-04-03T09:27:41;10.01;-6.00
67358;HTU21D;54240;51.096;5.878;2023-04-03T09:30:19;10.90;-6.00
67358;HTU21D;54240;51.096;5.878;2023-04-03T09:32:48;11.76;-6.00
67358;HTU21D;54240;51.096;5.878;2023-04-03T09:35:29;12.01;-6.00
67358;HTU21D;54240;51.096;5.878;2023-04-03T09:40:40;11.76;-6.00
67358;HTU21D;54240;51.096;5.878;2023-04-03T09:43:24;11.46;-6.00
67358;HTU21D;54240;51.096;5.878;2023-04-03T09:45:51;11.00;-6.00
67358;HTU21D;54240;51.096;5.878;2023-04-03T09:48:21;10.48;-6.00
67358;HTU21D;54240;51.096;5.878;2023-04-03T09:53:43;10.30;-6.00
67358;HTU21D;54240;51.096;5.878;2023-04-03T09:58:46;10.62;-6.00
67358;HTU21D;54240;51.096;5.878;2023-04-03T10:01:55;10.58;-6.00
67358;HTU21D;54240;51.096;5.878;2023-04-03T10:04:17;10.72;-6.00
67358;HTU21D;54240;51.096;5.878;2023-04-03T10:06:54;11.40;-6.00
67358;HTU21D;54240;51.096;5.878;2023-04-03T10:09:27;12.00;-6.00
67358;HTU21D;54240;51.096;5.878;2023-04-03T10:14:35;10.59;-6.00
67358;HTU21D;54240;51.096;5.878;2023-04-03T10:17:31;9.75;-6.00
67358;HTU21D;54240;51.096;5.878;2023-04-03T10:20:27;10.70;-6.00
67358;HTU21D;54240;51.096;5.878;2023-04-03T10:23:21;10.25;-6.00
67358;HTU21D;54240;51.096;5.878;2023-04-03T10:29:13;11.68;-6.00
67358;HTU21D;54240;51.096;5.878;2023-04-03T10:34:44;11.37;-6.00
67358;HTU21D;54240;51.096;5.878;2023-04-03T10:40:01;10.71;-6.00
67358;HTU21D;54240;51.096;5.878;2023-04-03T10:45:31;10.24;-6.00
67358;HTU21D;54240;51.096;5.878;2023-04-03T10:58:45;13.33;-6.00
67358;HTU21D;54240;51.096;5.878;2023-04-03T11:01:21;13.50;-6.00
67358;HTU21D;54240;51.096;5.878;2023-04-03T11:03:54;13.96;-6.00
67358;HTU21D;54240;51.096;5.878;2023-04-03T11:06:27;14.36;-6.00
67358;HTU21D;54240;51.096;5.878;2023-04-03T11:09:02;14.11;-6.00
67358;HTU21D;54240;51.096;5.878;2023-04-03T11:11:35;14.57;-6.00
67358;HTU21D;54240;51.096;5.878;2023-04-03T11:14:10;14.88;-6.00
67358;HTU21D;54240;51.096;5.878;2023-04-03T11:17:03;15.39;-6.00
67358;HTU21D;54240;51.096;5.878;2023-04-03T11:19:47;15.46;-6.00
67358;HTU21D;54240;51.096;5.878;2023-04-03T11:22:34;15.61;-6.00
67358;HTU21D;54240;51.096;5.878;2023-04-03T11:25:14;15.93;-6.00
67358;HTU21D;54240;51.096;5.878;2023-04-03T11:27:59;16.21;-6.00
67358;HTU21D;54240;51.096;5.878;2023-04-03T11:30:36;16.03;-6.00
67358;HTU21D;54240;51.096;5.878;2023-04-03T11:36:18;15.82;-6.00
67358;HTU21D;54240;51.096;5.878;2023-04-03T11:38:47;15.85;-6.00
67358;HTU21D;54240;51.096;5.878;2023-04-03T11:41:14;16.17;-6.00
67358;HTU21D;54240;51.096;5.878;2023-04-03T11:44:03;16.58;-6.00
67358;HTU21D;54240;51.096;5.878;2023-04-03T11:46:55;16.01;-6.00
67358;HTU21D;54240;51.096;5.878;2023-04-03T12:16:29;11.28;-6.00
67358;HTU21D;54240;51.096;5.878;2023-04-03T12:18:58;11.46;-6.00
67358;HTU21D;54240;51.096;5.878;2023-04-03T12:26:44;13.32;-6.00
67358;HTU21D;54240;51.096;5.878;2023-04-03T12:29:24;12.75;-6.00
67358;HTU21D;54240;51.096;5.878;2023-04-03T12:31:56;12.38;-6.00
67358;HTU21D;54240;51.096;5.878;2023-04-03T12:37:44;13.15;-6.00
67358;HTU21D;54240;51.096;5.878;2023-04-03T12:48:15;12.16;-6.00
67358;HTU21D;54240;51.096;5.878;2023-04-03T12:50:45;12.11;-6.00
67358;HTU21D;54240;51.096;5.878;2023-04-03T12:53:22;12.44;-6.00
67358;HTU21D;54240;51.096;5.878;2023-04-03T12:55:55;12.80;-6.00
67358;HTU21D;54240;51.096;5.878;2023-04-03T13:01:02;13.39;-6.00
67358;HTU21D;54240;51.096;5.878;2023-04-03T13:03:29;13.54;-6.00
67358;HTU21D;54240;51.096;5.878;2023-04-03T13:06:01;12.90;-6.00
67358;HTU21D;54240;51.096;5.878;2023-04-03T13:08:30;12.87;-6.00
67358;HTU21D;54240;51.096;5.878;2023-04-03T13:11:11;12.87;-6.00
67358;HTU21D;54240;51.096;5.878;2023-04-03T13:13:37;12.78;-6.00
67358;HTU21D;54240;51.096;5.878;2023-04-03T13:16:10;12.45;-6.00
67358;HTU21D;54240;51.096;5.878;2023-04-03T13:18:37;12.85;-6.00
67358;HTU21D;54240;51.096;5.878;2023-04-03T13:21:27;13.26;-6.00
67358;HTU21D;54240;51.096;5.878;2023-04-03T13:24:00;13.55;-6.00
67358;HTU21D;54240;51.096;5.878;2023-04-03T13:26:31;13.67;-6.00
67358;HTU21D;54240;51.096;5.878;2023-04-03T13:29:14;13.60;-6.00
67358;HTU21D;54240;51.096;5.878;2023-04-03T13:31:42;13.31;-6.00
67358;HTU21D;54240;51.096;5.878;2023-04-03T13:34:17;12.23;-6.00
67358;HTU21D;54240;51.096;5.878;2023-04-03T13:41:45;11.88;-6.00
67358;HTU21D;54240;51.096;5.878;2023-04-03T13:44:33;12.18;-6.00
67358;HTU21D;54240;51.096;5.878;2023-04-03T13:47:23;12.23;-6.00
67358;HTU21D;54240;51.096;5.878;2023-04-03T13:50:11;11.66;-6.00
67358;HTU21D;54240;51.096;5.878;2023-04-03T13:52:52;11.39;-6.00
67358;HTU21D;54240;51.096;5.878;2023-04-03T13:55:26;11.48;-6.00
67358;HTU21D;54240;51.096;5.878;2023-04-03T14:00:51;12.35;-6.00
67358;HTU21D;54240;51.096;5.878;2023-04-03T14:03:25;12.02;-6.00
67358;HTU21D;54240;51.096;5.878;2023-04-03T14:05:52;12.25;-6.00
67358;HTU21D;54240;51.096;5.878;2023-04-03T14:08:19;12.27;-6.00
67358;HTU21D;54240;51.096;5.878;2023-04-03T14:10:46;12.32;-6.00
67358;HTU21D;54240;51.096;5.878;2023-04-03T14:13:14;11.72;-6.00
67358;HTU21D;54240;51.096;5.878;2023-04-03T14:15:40;11.60;-6.00
67358;HTU21D;54240;51.096;5.878;2023-04-03T14:18:16;11.62;-6.00
67358;HTU21D;54240;51.096;5.878;2023-04-03T14:20:43;11.60;-6.00
67358;HTU21D;54240;51.096;5.878;2023-04-03T14:23:10;11.55;-6.00
67358;HTU21D;54240;51.096;5.878;2023-04-03T14:25:36;11.49;-6.00
67358;HTU21D;54240;51.096;5.878;2023-04-03T14:28:18;11.41;-6.00
67358;HTU21D;54240;51.096;5.878;2023-04-03T14:30:48;11.63;-6.00
67358;HTU21D;54240;51.096;5.878;2023-04-03T14:33:17;11.40;-6.00
67358;HTU21D;54240;51.096;5.878;2023-04-03T14:35:45;11.82;-6.00
67358;HTU21D;54240;51.096;5.878;2023-04-03T14:38:27;11.89;-6.00
67358;HTU21D;54240;51.096;5.878;2023-04-03T14:40:54;11.57;-6.00
67358;HTU21D;54240;51.096;5.878;2023-04-03T14:43:21;11.71;-6.00
67358;HTU21D;54240;51.096;5.878;2023-04-03T14:45:48;11.84;-6.00
67358;HTU21D;54240;51.096;5.878;2023-04-03T14:48:18;11.28;-6.00
67358;HTU21D;54240;51.096;5.878;2023-04-03T14:50:46;11.29;-6.00
67358;HTU21D;54240;51.096;5.878;2023-04-03T14:53:13;11.34;-6.00
67358;HTU21D;54240;51.096;5.878;2023-04-03T14:55:46;11.01;-6.00
67358;HTU21D;54240;51.096;5.878;2023-04-03T14:58:17;11.19;-6.00
67358;HTU21D;54240;51.096;5.878;2023-04-03T15:00:44;11.26;-6.00
67358;HTU21D;54240;51.096;5.878;2023-04-03T15:03:20;11.94;-6.00
67358;HTU21D;54240;51.096;5.878;2023-04-03T15:05:48;12.08;-6.00
67358;HTU21D;54240;51.096;5.878;2023-04-03T15:08:21;12.40;-6.00
67358;HTU21D;54240;51.096;5.878;2023-04-03T15:10:50;11.71;-6.00
67358;HTU21D;54240;51.096;5.878;2023-04-03T15:13:19;11.43;-6.00
67358;HTU21D;54240;51.096;5.878;2023-04-03T15:15:45;11.32;-6.00
67358;HTU21D;54240;51.096;5.878;2023-04-03T15:18:24;11.09;-6.00
67358;HTU21D;54240;51.096;5.878;2023-04-03T15:20:53;11.32;-6.00
67358;HTU21D;54240;51.096;5.878;2023-04-03T15:23:19;11.76;-6.00
67358;HTU21D;54240;51.096;5.878;2023-04-03T15:25:47;11.70;-6.00
67358;HTU21D;54240;51.096;5.878;2023-04-03T15:28:21;11.72;-6.00
67358;HTU21D;54240;51.096;5.878;2023-04-03T15:30:47;11.83;-6.00
67358;HTU21D;54240;51.096;5.878;2023-04-03T15:33:13;11.68;-6.00
67358;HTU21D;54240;51.096;5.878;2023-04-03T15:35:41;11.33;-6.00
67358;HTU21D;54240;51.096;5.878;2023-04-03T15:38:08;11.75;-6.00
67358;HTU21D;54240;51.096;5.878;2023-04-03T15:40:34;11.76;-6.00
67358;HTU21D;54240;51.096;5.878;2023-04-03T15:43:00;11.46;-6.00
67358;HTU21D;54240;51.096;5.878;2023-04-03T15:45:30;11.16;-6.00
67358;HTU21D;54240;51.096;5.878;2023-04-03T15:47:57;11.12;-6.00
67358;HTU21D;54240;51.096;5.878;2023-04-03T15:50:23;10.77;-6.00
67358;HTU21D;54240;51.096;5.878;2023-04-03T15:52:51;10.64;-6.00
67358;HTU21D;54240;51.096;5.878;2023-04-03T15:55:22;10.51;-6.00
67358;HTU21D;54240;51.096;5.878;2023-04-03T15:57:48;11.04;-6.00
67358;HTU21D;54240;51.096;5.878;2023-04-03T16:00:14;10.82;-6.00
67358;HTU21D;54240;51.096;5.878;2023-04-03T16:02:41;11.12;-6.00
67358;HTU21D;54240;51.096;5.878;2023-04-03T16:05:09;11.55;-6.00
67358;HTU21D;54240;51.096;5.878;2023-04-03T16:07:39;11.41;-6.00
67358;HTU21D;54240;51.096;5.878;2023-04-03T16:10:07;11.01;-6.00
67358;HTU21D;54240;51.096;5.878;2023-04-03T16:12:33;10.90;-6.00
67358;HTU21D;54240;51.096;5.878;2023-04-03T16:14:59;10.72;-6.00
67358;HTU21D;54240;51.096;5.878;2023-04-03T16:17:26;10.87;-6.00
67358;HTU21D;54240;51.096;5.878;2023-04-03T16:19:54;11.37;-6.00
67358;HTU21D;54240;51.096;5.878;2023-04-03T16:22:21;11.45;-6.00
67358;HTU21D;54240;51.096;5.878;2023-04-03T16:24:47;11.17;-6.00
67358;HTU21D;54240;51.096;5.878;2023-04-03T16:27:13;10.99;-6.00
67358;HTU21D;54240;51.096;5.878;2023-04-03T16:29:38;11.08;-6.00
67358;HTU21D;54240;51.096;5.878;2023-04-03T16:32:04;11.09;-6.00
67358;HTU21D;54240;51.096;5.878;2023-04-03T16:34:30;11.00;-6.00
67358;HTU21D;54240;51.096;5.878;2023-04-03T16:36:58;11.14;-6.00
67358;HTU21D;54240;51.096;5.878;2023-04-03T16:39:24;11.08;-6.00
67358;HTU21D;54240;51.096;5.878;2023-04-03T16:41:49;10.98;-6.00
67358;HTU21D;54240;51.096;5.878;2023-04-03T16:44:15;10.74;-6.00
67358;HTU21D;54240;51.096;5.878;2023-04-03T16:46:41;11.34;-6.00
67358;HTU21D;54240;51.096;5.878;2023-04-03T16:49:07;12.88;-6.00
67358;HTU21D;54240;51.096;5.878;2023-04-03T16:51:33;14.07;-6.00
67358;HTU21D;54240;51.096;5.878;2023-04-03T16:53:59;14.37;-6.00
67358;HTU21D;54240;51.096;5.878;2023-04-03T16:56:25;13.21;-6.00
67358;HTU21D;54240;51.096;5.878;2023-04-03T16:58:52;12.77;-6.00
67358;HTU21D;54240;51.096;5.878;2023-04-03T17:01:21;13.36;-6.00
67358;HTU21D;54240;51.096;5.878;2023-04-03T17:03:47;13.64;-6.00
67358;HTU21D;54240;51.096;5.878;2023-04-03T17:06:19;13.10;-6.00
67358;HTU21D;54240;51.096;5.878;2023-04-03T17:08:47;11.97;-6.00
67358;HTU21D;54240;51.096;5.878;2023-04-03T17:11:26;10.83;-6.00
67358;HTU21D;54240;51.096;5.878;2023-04-03T17:13:52;10.68;-6.00
67358;HTU21D;54240;51.096;5.878;2023-04-03T17:16:18;10.73;-6.00
67358;HTU21D;54240;51.096;5.878;2023-04-03T17:18:45;10.73;-6.00
67358;HTU21D;54240;51.096;5.878;2023-04-03T17:21:13;10.55;-6.00
67358;HTU21D;54240;51.096;5.878;2023-04-03T17:23:41;10.74;-6.00
67358;HTU21D;54240;51.096;5.878;2023-04-03T17:26:08;10.84;-6.00
67358;HTU21D;54240;51.096;5.878;2023-04-03T17:28:34;10.93;-6.00
67358;HTU21D;54240;51.096;5.878;2023-04-03T17:31:01;11.98;-6.00